createdAt,value
2018-03-07T00:01:52.376Z,14.33
2018-03-07T00:04:20.070Z,16.57
2018-03-07T00:06:47.780Z,13.40
2018-03-07T00:09:15.459Z,10.43
2018-03-07T00:11:43.156Z,9.90
2018-03-07T00:14:10.827Z,9.57
2018-03-07T00:16:39.238Z,9.80
2018-03-07T00:19:06.888Z,10.33
2018-03-07T00:21:34.626Z,10.60
2018-03-07T00:24:03.051Z,9.00
2018-03-07T00:26:30.686Z,9.63
2018-03-07T00:28:59.087Z,10.73
2018-03-07T00:31:26.752Z,11.23
2018-03-07T00:33:54.403Z,11.37
2018-03-07T00:36:22.053Z,11.20
2018-03-07T00:38:49.692Z,13.53
2018-03-07T00:41:18.112Z,10.03
2018-03-07T00:43:45.781Z,9.40
2018-03-07T00:46:13.459Z,13.13
2018-03-07T00:48:41.116Z,12.00
2018-03-07T00:51:08.820Z,12.93
2018-03-07T00:53:37.239Z,11.60
2018-03-07T00:56:04.913Z,14.43
2018-03-07T00:58:32.572Z,16.70
2018-03-07T01:01:00.227Z,17.37
2018-03-07T01:03:27.881Z,15.87
2018-03-07T01:05:55.521Z,17.63
2018-03-07T01:08:23.193Z,17.20
2018-03-07T01:10:50.863Z,18.07
2018-03-07T01:13:18.504Z,16.67
2018-03-07T01:15:46.166Z,17.13
2018-03-07T01:18:13.862Z,17.40
2018-03-07T01:20:41.515Z,17.17
2018-03-07T01:23:09.927Z,18.40
2018-03-07T01:25:37.594Z,18.40
2018-03-07T01:28:06.046Z,16.57
2018-03-07T01:30:33.708Z,16.97
2018-03-07T01:33:01.359Z,16.37
2018-03-07T01:35:29.044Z,16.47
2018-03-07T01:37:56.691Z,16.77
2018-03-07T01:40:24.370Z,18.50
2018-03-07T01:42:52.789Z,15.90
2018-03-07T01:45:20.481Z,17.33
2018-03-07T01:47:48.140Z,16.20
2018-03-07T01:50:15.791Z,18.13
2018-03-07T01:52:43.496Z,16.40
2018-03-07T01:55:11.912Z,14.87
2018-03-07T01:57:39.567Z,15.30
2018-03-07T02:00:07.252Z,14.13
2018-03-07T02:02:34.886Z,12.57
2018-03-07T02:05:02.547Z,14.03
2018-03-07T02:07:30.244Z,16.03
2018-03-07T02:09:57.893Z,13.27
2018-03-07T02:12:25.543Z,12.60
2018-03-07T02:14:53.211Z,12.87
2018-03-07T02:17:20.852Z,12.07
2018-03-07T02:19:48.492Z,11.13
2018-03-07T02:22:16.902Z,10.67
2018-03-07T02:24:44.548Z,12.37
2018-03-07T02:27:12.208Z,10.73
2018-03-07T02:29:39.894Z,9.93
2018-03-07T02:32:07.592Z,12.07
2018-03-07T02:34:35.241Z,13.33
2018-03-07T02:37:02.918Z,10.30
2018-03-07T02:39:31.333Z,11.90
2018-03-07T02:41:59.019Z,11.67
2018-03-07T02:44:26.688Z,11.43
2018-03-07T02:46:54.336Z,11.63
2018-03-07T02:49:22.007Z,11.30
2018-03-07T02:51:49.683Z,10.50
2018-03-07T02:54:17.330Z,12.50
2018-03-07T02:56:45.031Z,11.80
2018-03-07T02:59:13.494Z,9.30
2018-03-07T03:01:41.136Z,9.63
2018-03-07T03:04:08.799Z,11.87
2018-03-07T03:06:36.464Z,11.50
2018-03-07T03:09:04.230Z,9.27
2018-03-07T03:11:31.949Z,7.77
2018-03-07T03:13:59.632Z,8.70
2018-03-07T03:16:27.280Z,9.17
2018-03-07T03:18:54.991Z,9.57
2018-03-07T03:21:22.630Z,8.23
2018-03-07T03:23:50.283Z,8.87
2018-03-07T03:26:17.948Z,8.33
2018-03-07T03:28:46.392Z,8.13
2018-03-07T03:31:14.084Z,7.87
2018-03-07T03:33:41.755Z,7.20
2018-03-07T03:36:09.409Z,6.90
2018-03-07T03:38:37.092Z,7.13
2018-03-07T03:41:05.659Z,7.73
2018-03-07T03:43:33.308Z,5.63
2018-03-07T03:46:00.969Z,6.27
2018-03-07T03:48:28.624Z,6.97
2018-03-07T03:50:56.270Z,7.33
2018-03-07T03:53:23.911Z,7.13
2018-03-07T03:55:51.567Z,6.03
2018-03-07T03:58:19.306Z,5.27
2018-03-07T04:00:47.735Z,5.93
2018-03-07T04:03:15.395Z,4.87
2018-03-07T04:05:43.041Z,4.93
2018-03-07T04:08:10.677Z,5.03
2018-03-07T04:10:39.091Z,7.43
2018-03-07T04:13:06.746Z,4.93
2018-03-07T04:15:34.387Z,4.60
2018-03-07T04:18:02.082Z,5.40
2018-03-07T04:20:29.718Z,4.20
2018-03-07T04:22:57.372Z,5.33
2018-03-07T04:25:25.047Z,5.70
2018-03-07T04:27:52.692Z,4.03
2018-03-07T04:30:20.356Z,5.57
2018-03-07T04:32:48.007Z,5.43
2018-03-07T04:35:15.672Z,5.60
2018-03-07T04:37:43.310Z,14.50
2018-03-07T04:40:11.771Z,8.50
2018-03-07T04:42:39.443Z,12.97
2018-03-07T04:45:07.848Z,9.97
2018-03-07T04:47:35.579Z,7.53
2018-03-07T04:50:04.035Z,7.93
2018-03-07T04:52:31.694Z,7.10
2018-03-07T04:54:59.429Z,8.67
2018-03-07T04:57:27.874Z,8.43
2018-03-07T04:59:56.426Z,7.37
2018-03-07T05:02:25.005Z,6.70
2018-03-07T05:04:52.855Z,6.77
2018-03-07T05:07:20.687Z,8.80
2018-03-07T05:09:48.510Z,5.97
2018-03-07T05:12:17.140Z,8.73
2018-03-07T05:14:45.026Z,8.23
2018-03-07T05:17:12.764Z,8.20
2018-03-07T05:19:40.419Z,8.30
2018-03-07T05:22:08.109Z,12.07
2018-03-07T05:24:35.778Z,11.73
2018-03-07T05:27:03.430Z,11.73
2018-03-07T05:29:31.084Z,15.50
2018-03-07T05:31:58.759Z,12.70
2018-03-07T05:34:26.412Z,12.03
2018-03-07T05:36:54.128Z,15.70
2018-03-07T05:39:21.804Z,15.20
2018-03-07T05:41:49.448Z,14.77
2018-03-07T05:44:17.938Z,16.30
2018-03-07T05:46:45.802Z,16.47
2018-03-07T05:49:13.541Z,17.93
2018-03-07T05:51:42.001Z,16.37
2018-03-07T05:54:09.868Z,13.90
2018-03-07T05:56:37.621Z,16.00
2018-03-07T05:59:05.387Z,19.47
2018-03-07T06:01:33.157Z,17.90
2018-03-07T06:04:01.610Z,19.43
2018-03-07T06:06:29.296Z,17.10
2018-03-07T06:08:56.955Z,16.90
2018-03-07T06:11:24.685Z,17.23
2018-03-07T06:13:52.431Z,14.77
2018-03-07T06:16:20.286Z,15.70
2018-03-07T06:18:47.947Z,14.57
2018-03-07T06:21:15.672Z,16.63
2018-03-07T06:23:43.330Z,18.37
2018-03-07T06:26:10.979Z,16.53
2018-03-07T06:28:38.772Z,18.17
2018-03-07T06:31:07.277Z,21.43
2018-03-07T06:33:35.014Z,20.17
2018-03-07T06:36:03.438Z,26.10
2018-03-07T06:38:31.098Z,21.80
2018-03-07T06:40:58.744Z,19.73
2018-03-07T06:46:00.161Z,23.37
2018-03-07T06:48:27.831Z,33.03
2018-03-07T06:50:55.688Z,37.60
2018-03-07T06:53:23.513Z,49.00
2018-03-07T06:55:51.248Z,52.17
2018-03-07T06:58:19.008Z,52.40
2018-03-07T07:00:46.687Z,54.90
2018-03-07T07:03:14.371Z,56.80
2018-03-07T07:05:42.028Z,55.80
2018-03-07T07:08:09.856Z,70.07
2018-03-07T07:10:37.605Z,64.23
2018-03-07T07:13:06.095Z,65.23
2018-03-07T07:15:34.585Z,65.37
2018-03-07T07:18:02.336Z,66.20
2018-03-07T07:20:30.071Z,53.40
2018-03-07T07:22:58.626Z,49.17
2018-03-07T07:25:26.333Z,45.70
2018-03-07T07:27:54.764Z,41.60
2018-03-07T07:30:22.424Z,38.17
2018-03-07T07:32:50.091Z,40.70
2018-03-07T07:35:17.843Z,40.23
2018-03-07T07:37:45.520Z,43.40
2018-03-07T07:40:13.250Z,44.07
2018-03-07T07:42:40.917Z,57.20
2018-03-07T07:45:08.563Z,57.17
2018-03-07T07:47:36.301Z,53.27
2018-03-07T07:50:04.077Z,51.63
2018-03-07T07:52:32.708Z,54.13
2018-03-07T07:55:00.376Z,53.37
2018-03-07T07:57:28.107Z,50.47
2018-03-07T07:59:55.922Z,55.47
2018-03-07T08:02:24.438Z,60.77
2018-03-07T08:04:52.159Z,73.57
2018-03-07T08:07:19.913Z,76.57
2018-03-07T08:09:48.375Z,62.10
2018-03-07T08:12:16.047Z,57.73
2018-03-07T08:14:43.759Z,55.50
2018-03-07T08:17:11.531Z,60.00
2018-03-07T08:19:39.220Z,65.57
2018-03-07T08:22:06.949Z,73.17
2018-03-07T08:24:34.701Z,86.50
2018-03-07T08:27:02.404Z,79.77
2018-03-07T08:29:30.166Z,77.73
2018-03-07T08:31:57.843Z,93.07
2018-03-07T08:34:25.601Z,88.67
2018-03-07T08:36:53.288Z,88.07
2018-03-07T08:39:21.702Z,76.00
2018-03-07T08:41:49.448Z,72.47
2018-03-07T08:44:17.159Z,71.07
2018-03-07T08:46:44.827Z,76.20
2018-03-07T08:49:12.645Z,59.60
2018-03-07T08:51:40.334Z,56.03
2018-03-07T08:54:07.982Z,54.40
2018-03-07T08:56:35.629Z,56.03
2018-03-07T08:59:03.315Z,52.23
2018-03-07T09:01:31.118Z,54.67
2018-03-07T09:03:58.912Z,48.27
2018-03-07T09:06:26.589Z,46.27
2018-03-07T09:08:54.233Z,54.97
2018-03-07T09:11:21.979Z,43.77
2018-03-07T09:13:50.510Z,52.47
2018-03-07T09:16:18.290Z,48.90
2018-03-07T09:18:46.090Z,45.67
2018-03-07T09:21:13.781Z,50.30
2018-03-07T09:23:41.576Z,52.67
2018-03-07T09:26:09.393Z,51.17
2018-03-07T09:28:37.202Z,47.97
2018-03-07T09:31:04.944Z,52.93
2018-03-07T09:33:32.677Z,48.87
2018-03-07T09:36:00.409Z,60.43
2018-03-07T09:38:28.160Z,63.33
2018-03-07T09:40:55.822Z,60.10
2018-03-07T09:43:23.483Z,61.30
2018-03-07T09:45:51.132Z,66.10
2018-03-07T09:48:18.861Z,64.63
2018-03-07T09:50:46.654Z,77.00
2018-03-07T09:53:14.400Z,74.13
2018-03-07T09:55:42.134Z,69.50
2018-03-07T09:58:09.789Z,75.40
2018-03-07T10:00:38.295Z,78.27
2018-03-07T10:03:06.028Z,80.67
2018-03-07T10:05:33.716Z,77.43
2018-03-07T10:08:01.386Z,83.57
2018-03-07T10:10:29.113Z,82.07
2018-03-07T10:12:56.870Z,85.23
2018-03-07T10:15:24.554Z,90.70
2018-03-07T10:17:52.238Z,80.33
2018-03-07T10:20:20.044Z,73.00
2018-03-07T10:22:48.666Z,68.33
2018-03-07T10:25:16.341Z,75.47
2018-03-07T10:27:43.989Z,81.70
2018-03-07T10:30:11.670Z,79.47
2018-03-07T10:32:39.488Z,84.27
2018-03-07T10:35:07.249Z,76.80
2018-03-07T10:37:34.995Z,84.50
2018-03-07T10:40:03.680Z,74.93
2018-03-07T10:42:32.130Z,80.53
2018-03-07T10:44:59.860Z,84.87
2018-03-07T10:47:27.697Z,82.43
2018-03-07T10:49:55.499Z,74.43
2018-03-07T10:52:23.148Z,72.93
2018-03-07T10:54:50.793Z,85.73
2018-03-07T10:57:19.239Z,85.43
2018-03-07T10:59:46.885Z,74.20
2018-03-07T11:02:15.378Z,80.07
2018-03-07T11:04:43.054Z,75.73
2018-03-07T11:07:10.781Z,79.60
2018-03-07T11:09:38.457Z,72.10
2018-03-07T11:12:06.116Z,79.87
2018-03-07T11:14:34.697Z,92.70
2018-03-07T11:17:02.364Z,77.40
2018-03-07T11:19:30.947Z,80.27
2018-03-07T11:21:58.616Z,82.87
2018-03-07T11:24:26.276Z,90.10
2018-03-07T11:26:53.967Z,78.20
2018-03-07T11:29:22.528Z,82.50
2018-03-07T11:31:51.135Z,85.80
2018-03-07T11:34:18.822Z,71.37
2018-03-07T11:36:46.598Z,84.37
2018-03-07T11:39:14.348Z,78.97
2018-03-07T11:41:42.132Z,78.47
2018-03-07T11:44:09.874Z,78.40
2018-03-07T11:46:37.640Z,78.80
2018-03-07T11:49:05.302Z,78.80
2018-03-07T11:51:33.063Z,81.57
2018-03-07T11:54:00.838Z,78.97
2018-03-07T11:56:28.636Z,91.30
2018-03-07T11:58:57.172Z,87.27
2018-03-07T12:01:24.852Z,90.70
2018-03-07T12:03:52.593Z,84.53
2018-03-07T12:06:20.345Z,79.87
2018-03-07T12:08:48.035Z,90.83
2018-03-07T12:11:15.683Z,92.67
2018-03-07T12:13:43.477Z,88.70
2018-03-07T12:16:11.924Z,85.70
2018-03-07T12:18:39.586Z,94.97
2018-03-07T12:21:07.407Z,94.47
2018-03-07T12:23:35.109Z,91.60
2018-03-07T12:26:02.836Z,86.07
2018-03-07T12:28:30.592Z,93.47
2018-03-07T12:30:58.287Z,90.33
2018-03-07T12:33:25.956Z,99.17
2018-03-07T12:35:53.681Z,93.53
2018-03-07T12:38:21.524Z,94.50
2018-03-07T12:40:49.985Z,95.47
2018-03-07T12:43:17.642Z,81.67
2018-03-07T12:45:45.386Z,102.13
2018-03-07T12:48:13.165Z,96.87
2018-03-07T12:50:40.823Z,97.37
2018-03-07T12:53:08.549Z,93.90
2018-03-07T12:55:36.293Z,105.00
2018-03-07T12:58:04.024Z,101.33
2018-03-07T13:00:31.755Z,105.13
2018-03-07T13:02:59.411Z,98.40
2018-03-07T13:05:27.144Z,105.73
2018-03-07T13:07:54.823Z,104.00
2018-03-07T13:10:22.545Z,98.17
2018-03-07T13:12:51.167Z,103.40
2018-03-07T13:15:18.837Z,109.77
2018-03-07T13:17:46.580Z,111.40
2018-03-07T13:20:14.355Z,114.30
2018-03-07T13:22:42.046Z,111.67
2018-03-07T13:25:09.743Z,111.87
2018-03-07T13:27:38.191Z,108.00
2018-03-07T13:30:05.934Z,121.47
2018-03-07T13:32:33.723Z,110.43
2018-03-07T13:35:01.507Z,106.63
2018-03-07T13:37:29.965Z,105.13
2018-03-07T13:39:57.636Z,105.33
2018-03-07T13:42:25.376Z,107.67
2018-03-07T13:44:53.050Z,115.60
2018-03-07T13:47:21.709Z,105.93
2018-03-07T13:49:49.470Z,103.50
2018-03-07T13:52:17.311Z,107.73
2018-03-07T13:54:45.071Z,101.73
2018-03-07T13:57:12.861Z,110.33
2018-03-07T13:59:40.608Z,103.07
2018-03-07T14:02:08.285Z,94.03
2018-03-07T14:04:36.156Z,104.87
2018-03-07T14:07:03.921Z,98.87
2018-03-07T14:09:31.603Z,107.07
2018-03-07T14:11:59.283Z,99.73
2018-03-07T14:14:27.781Z,100.93
2018-03-07T14:16:55.656Z,95.07
2018-03-07T14:19:23.411Z,102.80
2018-03-07T14:21:51.125Z,106.03
2018-03-07T14:24:18.955Z,94.50
2018-03-07T14:26:46.713Z,104.20
2018-03-07T14:29:14.458Z,104.83
2018-03-07T14:31:42.224Z,96.23
2018-03-07T14:34:09.889Z,111.87
2018-03-07T14:36:37.531Z,102.47
2018-03-07T14:39:05.968Z,99.33
2018-03-07T14:41:33.723Z,100.90
2018-03-07T14:44:01.414Z,108.80
2018-03-07T14:46:29.253Z,100.57
2018-03-07T14:48:57.013Z,99.97
2018-03-07T14:51:24.707Z,104.23
2018-03-07T14:53:52.453Z,96.37
2018-03-07T14:56:20.160Z,97.53
2018-03-07T14:58:47.926Z,98.47
2018-03-07T15:01:15.670Z,96.77
2018-03-07T15:03:43.366Z,98.30
2018-03-07T15:06:11.021Z,102.70
2018-03-07T15:08:38.679Z,89.47
2018-03-07T15:11:06.379Z,102.90
2018-03-07T15:13:34.105Z,86.37
2018-03-07T15:16:01.772Z,101.03
2018-03-07T15:18:29.599Z,94.20
2018-03-07T15:20:58.052Z,98.97
2018-03-07T15:23:25.797Z,98.93
2018-03-07T15:25:53.588Z,99.47
2018-03-07T15:28:22.284Z,101.90
2018-03-07T15:30:50.799Z,102.30
2018-03-07T15:33:18.479Z,109.57
2018-03-07T15:35:46.119Z,97.30
2018-03-07T15:38:13.804Z,93.13
2018-03-07T15:40:41.487Z,99.03
2018-03-07T15:43:09.305Z,99.47
2018-03-07T15:45:37.080Z,101.30
2018-03-07T15:48:04.856Z,102.27
2018-03-07T15:50:32.691Z,105.67
2018-03-07T15:53:00.461Z,100.07
2018-03-07T15:55:28.140Z,99.00
2018-03-07T15:57:55.864Z,104.50
2018-03-07T16:00:23.668Z,109.33
2018-03-07T16:02:51.403Z,100.80
2018-03-07T16:05:19.074Z,101.40
2018-03-07T16:07:46.739Z,98.90
2018-03-07T16:10:14.503Z,94.57
2018-03-07T16:12:42.191Z,100.03
2018-03-07T16:15:09.945Z,102.17
2018-03-07T16:17:37.766Z,100.90
2018-03-07T16:20:05.588Z,105.40
2018-03-07T16:22:34.157Z,102.27
2018-03-07T16:25:01.905Z,84.83
2018-03-07T16:27:29.616Z,82.20
2018-03-07T16:29:58.062Z,84.47
2018-03-07T16:32:26.539Z,87.33
2018-03-07T16:34:54.196Z,90.03
2018-03-07T16:37:21.929Z,91.03
2018-03-07T16:39:49.682Z,93.37
2018-03-07T16:42:17.380Z,88.57
2018-03-07T16:44:45.090Z,87.50
2018-03-07T16:47:13.531Z,86.00
2018-03-07T16:49:41.202Z,81.57
2018-03-07T16:52:10.070Z,84.93
2018-03-07T16:54:37.783Z,76.20
2018-03-07T16:57:06.597Z,77.13
2018-03-07T16:59:34.289Z,79.67
2018-03-07T17:02:01.939Z,77.63
2018-03-07T17:04:29.640Z,74.73
2018-03-07T17:06:58.091Z,79.80
2018-03-07T17:09:25.744Z,68.40
2018-03-07T17:11:53.411Z,69.27
2018-03-07T17:14:21.099Z,73.00
2018-03-07T17:16:49.692Z,76.37
2018-03-07T17:19:18.228Z,72.43
2018-03-07T17:21:46.012Z,76.80
2018-03-07T17:24:13.753Z,76.23
2018-03-07T17:26:41.415Z,76.77
2018-03-07T17:29:09.075Z,85.73
2018-03-07T17:31:36.788Z,76.53
2018-03-07T17:34:04.475Z,86.97
2018-03-07T17:36:33.040Z,77.77
2018-03-07T17:39:00.805Z,79.70
2018-03-07T17:41:28.549Z,86.70
2018-03-07T17:43:56.372Z,80.07
2018-03-07T17:46:24.189Z,77.23
2018-03-07T17:48:51.993Z,77.10
2018-03-07T17:51:19.755Z,84.30
2018-03-07T17:53:47.419Z,72.87
2018-03-07T17:56:15.150Z,93.40
2018-03-07T17:58:42.846Z,78.57
2018-03-07T18:01:10.527Z,74.77
2018-03-07T18:03:38.293Z,84.53
2018-03-07T18:06:06.825Z,80.10
2018-03-07T18:08:34.584Z,82.40
2018-03-07T18:11:02.248Z,80.43
2018-03-07T18:13:29.897Z,85.97
2018-03-07T18:15:57.695Z,79.97
2018-03-07T18:18:25.469Z,84.70
2018-03-07T18:20:53.299Z,78.57
2018-03-07T18:23:21.112Z,77.97
2018-03-07T18:25:49.633Z,82.23
2018-03-07T18:28:17.339Z,82.50
2018-03-07T18:30:45.065Z,77.80
2018-03-07T18:33:12.823Z,76.33
2018-03-07T18:35:40.640Z,75.97
2018-03-07T18:38:08.408Z,75.63
2018-03-07T18:40:36.923Z,80.40
2018-03-07T18:43:04.728Z,79.77
2018-03-07T18:45:32.531Z,84.97
2018-03-07T18:48:01.044Z,79.50
2018-03-07T18:50:28.797Z,79.83
2018-03-07T18:52:56.541Z,74.73
2018-03-07T18:55:25.039Z,75.70
2018-03-07T18:57:52.790Z,73.57
2018-03-07T19:00:20.556Z,85.37
2018-03-07T19:02:48.293Z,80.17
2018-03-07T19:05:16.810Z,86.67
2018-03-07T19:07:44.557Z,86.73
2018-03-07T19:10:12.289Z,88.30
2018-03-07T19:12:40.045Z,84.33
2018-03-07T19:15:07.809Z,80.53
2018-03-07T19:17:35.602Z,84.27
2018-03-07T19:20:03.445Z,82.00
2018-03-07T19:22:32.009Z,78.77
2018-03-07T19:24:59.779Z,83.40
2018-03-07T19:27:27.517Z,78.83
2018-03-07T19:29:55.265Z,78.30
2018-03-07T19:32:23.621Z,88.07
2018-03-07T19:34:52.228Z,83.57
2018-03-07T19:37:19.976Z,78.27
2018-03-07T19:39:47.732Z,87.30
2018-03-07T19:42:15.465Z,85.97
2018-03-07T19:44:44.020Z,83.60
2018-03-07T19:47:11.831Z,80.60
2018-03-07T19:49:39.583Z,81.43
2018-03-07T19:52:07.338Z,84.50
2018-03-07T19:54:35.860Z,78.07
2018-03-07T19:57:03.605Z,80.13
2018-03-07T19:59:31.369Z,74.40
2018-03-07T20:01:59.144Z,82.30
2018-03-07T20:04:26.911Z,78.50
2018-03-07T20:06:54.789Z,82.70
2018-03-07T20:09:22.588Z,91.93
2018-03-07T20:11:50.358Z,80.87
2018-03-07T20:14:19.100Z,77.63
2018-03-07T20:16:46.865Z,81.00
2018-03-07T20:19:14.649Z,74.67
2018-03-07T20:21:42.419Z,73.00
2018-03-07T20:24:10.180Z,73.43
2018-03-07T20:26:37.961Z,73.27
2018-03-07T20:29:06.491Z,71.73
2018-03-07T20:31:34.296Z,82.13
2018-03-07T20:34:02.228Z,75.87
2018-03-07T20:36:29.965Z,76.17
2018-03-07T20:38:57.800Z,80.87
2018-03-07T20:41:25.667Z,75.33
2018-03-07T20:43:53.477Z,76.93
2018-03-07T20:46:22.206Z,70.20
2018-03-07T20:48:50.945Z,76.03
2018-03-07T20:51:18.712Z,75.40
2018-03-07T20:53:46.454Z,74.80
2018-03-07T20:56:14.229Z,74.10
2018-03-07T20:58:42.900Z,78.37
2018-03-07T21:01:10.636Z,78.87
2018-03-07T21:03:39.195Z,79.83
2018-03-07T21:06:06.959Z,68.07
2018-03-07T21:08:34.755Z,70.90
2018-03-07T21:11:03.290Z,67.97
2018-03-07T21:13:31.047Z,65.27
2018-03-07T21:15:58.828Z,66.43
2018-03-07T21:18:26.664Z,59.73
2018-03-07T21:20:54.478Z,66.60
2018-03-07T21:23:23.035Z,60.97
2018-03-07T21:25:50.824Z,63.77
2018-03-07T21:28:19.377Z,61.00
2018-03-07T21:30:47.170Z,56.17
2018-03-07T21:33:15.733Z,51.97
2018-03-07T21:35:43.495Z,55.27
2018-03-07T21:38:11.289Z,58.73
2018-03-07T21:40:39.881Z,53.43
2018-03-07T21:43:08.460Z,54.17
2018-03-07T21:45:36.340Z,54.50
2018-03-07T21:48:04.173Z,55.03
2018-03-07T21:50:32.797Z,54.63
2018-03-07T21:53:00.665Z,51.10
2018-03-07T21:55:28.350Z,48.90
2018-03-07T21:57:56.027Z,55.43
2018-03-07T22:00:23.695Z,54.17
2018-03-07T22:02:51.352Z,54.40
2018-03-07T22:05:19.036Z,50.67
2018-03-07T22:07:47.468Z,53.77
2018-03-07T22:10:15.169Z,61.03
2018-03-07T22:12:42.893Z,64.13
2018-03-07T22:15:10.542Z,51.67
2018-03-07T22:17:38.201Z,58.13
2018-03-07T22:20:05.878Z,59.57
2018-03-07T22:22:34.290Z,56.10
2018-03-07T22:25:01.948Z,58.50
2018-03-07T22:27:29.609Z,59.37
2018-03-07T22:29:57.394Z,57.33
2018-03-07T22:32:25.145Z,59.07
2018-03-07T22:34:52.908Z,59.37
2018-03-07T22:37:21.415Z,58.13
2018-03-07T22:39:49.183Z,57.43
2018-03-07T22:42:16.976Z,59.03
2018-03-07T22:44:44.739Z,58.13
2018-03-07T22:47:12.602Z,57.30
2018-03-07T22:49:40.352Z,60.17
2018-03-07T22:52:08.152Z,61.30
2018-03-07T22:54:35.945Z,62.00
2018-03-07T22:57:03.693Z,63.83
2018-03-07T22:59:32.197Z,64.63
2018-03-07T23:02:00.006Z,55.20
2018-03-07T23:04:27.756Z,57.50
2018-03-07T23:06:55.512Z,57.67
2018-03-07T23:09:23.252Z,60.17
2018-03-07T23:11:50.992Z,57.30
2018-03-07T23:14:18.753Z,59.97
2018-03-07T23:16:47.450Z,60.53
2018-03-07T23:19:15.190Z,50.97
2018-03-07T23:21:43.719Z,56.27
2018-03-07T23:24:11.476Z,57.83
2018-03-07T23:26:39.252Z,57.37
2018-03-07T23:29:07.009Z,59.10
2018-03-07T23:31:34.769Z,57.43
2018-03-07T23:34:02.542Z,53.97
2018-03-07T23:36:31.055Z,56.93
2018-03-07T23:38:58.821Z,57.30
2018-03-07T23:41:27.336Z,55.53
2018-03-07T23:43:55.068Z,55.43
2018-03-07T23:46:23.589Z,55.17
2018-03-07T23:48:51.346Z,53.27
2018-03-07T23:51:19.085Z,57.03
2018-03-07T23:53:47.601Z,50.77
2018-03-07T23:56:15.345Z,50.07
2018-03-07T23:58:43.089Z,50.20
